sensor_id;sensor_type;location;lat;lon;timestamp;pressure;altitude;pressure_sealevel;temperature;humidity
64362;BME280;50685;53.346;-6.296;2023-03-18T00:01:00;99854.25;;;10.22;99.69
64362;BME280;50685;53.346;-6.296;2023-03-18T00:03:27;99861.28;;;10.23;99.79
64362;BME280;50685;53.346;-6.296;2023-03-18T00:06:01;99855.94;;;10.25;100.00
64362;BME280;50685;53.346;-6.296;2023-03-18T00:08:26;99854.19;;;10.25;99.55
64362;BME280;50685;53.346;-6.296;2023-03-18T00:10:51;99863.81;;;10.28;99.84
64362;BME280;50685;53.346;-6.296;2023-03-18T00:13:17;99865.56;;;10.29;99.93
64362;BME280;50685;53.346;-6.296;2023-03-18T00:15:42;99867.31;;;10.28;100.00
64362;BME280;50685;53.346;-6.296;2023-03-18T00:18:08;99867.38;;;10.27;100.00
64362;BME280;50685;53.346;-6.296;2023-03-18T00:20:33;99867.44;;;10.25;100.00
64362;BME280;50685;53.346;-6.296;2023-03-18T00:23:06;99868.34;;;10.24;100.00
64362;BME280;50685;53.346;-6.296;2023-03-18T00:25:32;99873.72;;;10.21;100.00
64362;BME280;50685;53.346;-6.296;2023-03-18T00:27:58;99879.09;;;10.18;100.00
64362;BME280;50685;53.346;-6.296;2023-03-18T00:30:24;99884.44;;;10.17;100.00
64362;BME280;50685;53.346;-6.296;2023-03-18T00:32:49;99888.00;;;10.16;100.00
64362;BME280;50685;53.346;-6.296;2023-03-18T00:35:14;99882.66;;;10.17;100.00
64362;BME280;50685;53.346;-6.296;2023-03-18T00:37:40;99895.91;;;10.17;100.00
64362;BME280;50685;53.346;-6.296;2023-03-18T00:40:07;99893.25;;;10.17;100.00
64362;BME280;50685;53.346;-6.296;2023-03-18T00:42:35;99894.13;;;10.18;100.00
64362;BME280;50685;53.346;-6.296;2023-03-18T00:45:03;99890.66;;;10.16;100.00
64362;BME280;50685;53.346;-6.296;2023-03-18T00:47:30;99893.28;;;10.16;100.00
64362;BME280;50685;53.346;-6.296;2023-03-18T00:49:55;99902.16;;;10.15;100.00
64362;BME280;50685;53.346;-6.296;2023-03-18T00:52:21;99912.69;;;10.16;100.00
64362;BME280;50685;53.346;-6.296;2023-03-18T00:54:46;99907.41;;;10.16;100.00
64362;BME280;50685;53.346;-6.296;2023-03-18T00:57:12;99896.81;;;10.16;100.00
64362;BME280;50685;53.346;-6.296;2023-03-18T00:59:37;99900.34;;;10.17;100.00
64362;BME280;50685;53.346;-6.296;2023-03-18T01:02:03;99896.78;;;10.18;100.00
64362;BME280;50685;53.346;-6.296;2023-03-18T01:04:28;99899.44;;;10.18;100.00
64362;BME280;50685;53.346;-6.296;2023-03-18T01:06:53;99902.03;;;10.19;100.00
64362;BME280;50685;53.346;-6.296;2023-03-18T01:09:19;99894.94;;;10.20;100.00
64362;BME280;50685;53.346;-6.296;2023-03-18T01:11:44;99902.00;;;10.21;100.00
64362;BME280;50685;53.346;-6.296;2023-03-18T01:14:09;99897.53;;;10.23;100.00
64362;BME280;50685;53.346;-6.296;2023-03-18T01:16:35;99901.94;;;10.24;100.00
64362;BME280;50685;53.346;-6.296;2023-03-18T01:19:00;99908.09;;;10.24;100.00
64362;BME280;50685;53.346;-6.296;2023-03-18T01:21:26;99901.88;;;10.25;100.00
64362;BME280;50685;53.346;-6.296;2023-03-18T01:23:51;99901.88;;;10.25;100.00
64362;BME280;50685;53.346;-6.296;2023-03-18T01:26:17;99907.13;;;10.27;100.00
64362;BME280;50685;53.346;-6.296;2023-03-18T01:28:42;99901.88;;;10.25;100.00
64362;BME280;50685;53.346;-6.296;2023-03-18T01:31:08;99907.09;;;10.28;100.00
64362;BME280;50685;53.346;-6.296;2023-03-18T01:33:34;99914.19;;;10.28;100.00
64362;BME280;50685;53.346;-6.296;2023-03-18T01:35:59;99913.31;;;10.27;100.00
64362;BME280;50685;53.346;-6.296;2023-03-18T01:38:26;99915.09;;;10.27;100.00
64362;BME280;50685;53.346;-6.296;2023-03-18T01:40:55;99915.13;;;10.25;100.00
64362;BME280;50685;53.346;-6.296;2023-03-18T01:43:25;99908.94;;;10.25;100.00
64362;BME280;50685;53.346;-6.296;2023-03-18T01:45:53;99921.34;;;10.24;100.00
64362;BME280;50685;53.346;-6.296;2023-03-18T01:48:19;99926.63;;;10.24;100.00
64362;BME280;50685;53.346;-6.296;2023-03-18T01:50:46;99923.97;;;10.24;100.00
64362;BME280;50685;53.346;-6.296;2023-03-18T01:53:13;99926.63;;;10.24;100.00
64362;BME280;50685;53.346;-6.296;2023-03-18T01:55:39;99927.50;;;10.25;100.00
64362;BME280;50685;53.346;-6.296;2023-03-18T01:58:11;99931.03;;;10.25;100.00
64362;BME280;50685;53.346;-6.296;2023-03-18T02:00:38;99926.59;;;10.26;100.00
64362;BME280;50685;53.346;-6.296;2023-03-18T02:03:05;99925.72;;;10.25;100.00
64362;BME280;50685;53.346;-6.296;2023-03-18T02:05:31;99933.69;;;10.25;100.00
64362;BME280;50685;53.346;-6.296;2023-03-18T02:07:56;99931.94;;;10.24;100.00
64362;BME280;50685;53.346;-6.296;2023-03-18T02:10:27;99931.06;;;10.24;100.00
64362;BME280;50685;53.346;-6.296;2023-03-18T02:13:11;99940.78;;;10.23;100.00
64362;BME280;50685;53.346;-6.296;2023-03-18T02:15:43;99939.03;;;10.22;100.00
64362;BME280;50685;53.346;-6.296;2023-03-18T02:18:10;99941.75;;;10.21;100.00
64362;BME280;50685;53.346;-6.296;2023-03-18T02:20:39;99931.19;;;10.19;100.00
64362;BME280;50685;53.346;-6.296;2023-03-18T02:26:02;99943.53;;;10.19;100.00
64362;BME280;50685;53.346;-6.296;2023-03-18T02:28:32;99948.84;;;10.19;100.00
64362;BME280;50685;53.346;-6.296;2023-03-18T02:30:58;99948.00;;;10.18;100.00
64362;BME280;50685;53.346;-6.296;2023-03-18T02:33:27;99948.94;;;10.16;100.00
64362;BME280;50685;53.346;-6.296;2023-03-18T02:35:54;99947.16;;;10.16;100.00
64362;BME280;50685;53.346;-6.296;2023-03-18T02:38:21;99948.06;;;10.15;100.00
64362;BME280;50685;53.346;-6.296;2023-03-18T02:40:47;99947.19;;;10.15;100.00
64362;BME280;50685;53.346;-6.296;2023-03-18T02:48:35;99950.84;;;10.10;100.00
64362;BME280;50685;53.346;-6.296;2023-03-18T02:51:01;99949.94;;;10.10;100.00
64362;BME280;50685;53.346;-6.296;2023-03-18T02:53:27;99954.38;;;10.09;100.00
64362;BME280;50685;53.346;-6.296;2023-03-18T02:55:52;99963.25;;;10.08;100.00
64362;BME280;50685;53.346;-6.296;2023-03-18T02:58:18;99961.50;;;10.07;100.00
64362;BME280;50685;53.346;-6.296;2023-03-18T03:00:43;99972.09;;;10.07;100.00
64362;BME280;50685;53.346;-6.296;2023-03-18T03:03:08;99963.34;;;10.05;100.00
64362;BME280;50685;53.346;-6.296;2023-03-18T03:05:34;99970.38;;;10.05;100.00
64362;BME280;50685;53.346;-6.296;2023-03-18T03:08:00;99969.53;;;10.04;100.00
64362;BME280;50685;53.346;-6.296;2023-03-18T03:10:25;99974.84;;;10.04;100.00
64362;BME280;50685;53.346;-6.296;2023-03-18T03:12:51;99977.44;;;10.06;100.00
64362;BME280;50685;53.346;-6.296;2023-03-18T03:15:16;99977.44;;;10.06;100.00
64362;BME280;50685;53.346;-6.296;2023-03-18T03:17:42;99977.38;;;10.07;100.00
64362;BME280;50685;53.346;-6.296;2023-03-18T03:20:07;99981.84;;;10.07;100.00
64362;BME280;50685;53.346;-6.296;2023-03-18T03:22:33;99975.66;;;10.06;100.00
64362;BME280;50685;53.346;-6.296;2023-03-18T03:24:58;99972.13;;;10.06;100.00
64362;BME280;50685;53.346;-6.296;2023-03-18T03:27:25;99979.19;;;10.07;99.25
64362;BME280;50685;53.346;-6.296;2023-03-18T03:29:51;99973.78;;;10.11;98.86
64362;BME280;50685;53.346;-6.296;2023-03-18T03:32:16;99985.22;;;10.12;97.17
64362;BME280;50685;53.346;-6.296;2023-03-18T03:34:42;99983.34;;;10.17;96.77
64362;BME280;50685;53.346;-6.296;2023-03-18T03:37:07;99989.47;;;10.19;96.20
64362;BME280;50685;53.346;-6.296;2023-03-18T03:39:33;99990.31;;;10.21;95.70
64362;BME280;50685;53.346;-6.296;2023-03-18T03:41:58;99990.28;;;10.23;94.81
64362;BME280;50685;53.346;-6.296;2023-03-18T03:44:23;99993.75;;;10.25;95.83
64362;BME280;50685;53.346;-6.296;2023-03-18T03:46:49;99991.97;;;10.25;95.75
64362;BME280;50685;53.346;-6.296;2023-03-18T03:49:14;99991.09;;;10.25;96.00
64362;BME280;50685;53.346;-6.296;2023-03-18T03:51:40;99997.31;;;10.24;95.83
64362;BME280;50685;53.346;-6.296;2023-03-18T03:54:06;99999.09;;;10.23;96.38
64362;BME280;50685;53.346;-6.296;2023-03-18T03:56:31;100000.84;;;10.24;96.67
64362;BME280;50685;53.346;-6.296;2023-03-18T03:58:57;100004.38;;;10.23;96.85
64362;BME280;50685;53.346;-6.296;2023-03-18T04:01:22;99997.34;;;10.22;96.72
64362;BME280;50685;53.346;-6.296;2023-03-18T04:03:48;100006.19;;;10.23;96.63
64362;BME280;50685;53.346;-6.296;2023-03-18T04:06:13;100000.00;;;10.22;96.86
64362;BME280;50685;53.346;-6.296;2023-03-18T04:08:39;100000.00;;;10.22;97.57
64362;BME280;50685;53.346;-6.296;2023-03-18T04:11:05;100007.97;;;10.21;97.44
64362;BME280;50685;53.346;-6.296;2023-03-18T04:13:31;100001.00;;;10.18;97.04
64362;BME280;50685;53.346;-6.296;2023-03-18T04:15:57;99996.69;;;10.12;93.87
64362;BME280;50685;53.346;-6.296;2023-03-18T04:18:23;100009.84;;;10.17;94.94
64362;BME280;50685;53.346;-6.296;2023-03-18T04:20:48;100001.00;;;10.18;95.83
64362;BME280;50685;53.346;-6.296;2023-03-18T04:23:14;100011.53;;;10.20;94.77
64362;BME280;50685;53.346;-6.296;2023-03-18T04:25:39;99997.34;;;10.22;95.53
64362;BME280;50685;53.346;-6.296;2023-03-18T04:28:04;100001.81;;;10.20;93.46
64362;BME280;50685;53.346;-6.296;2023-03-18T04:30:30;99997.34;;;10.22;95.95
64362;BME280;50685;53.346;-6.296;2023-03-18T04:32:56;99995.63;;;10.21;95.25
64362;BME280;50685;53.346;-6.296;2023-03-18T04:35:21;99994.78;;;10.19;94.88
64362;BME280;50685;53.346;-6.296;2023-03-18T04:37:47;99998.34;;;10.18;95.01
64362;BME280;50685;53.346;-6.296;2023-03-18T04:40:13;99997.53;;;10.15;94.27
64362;BME280;50685;53.346;-6.296;2023-03-18T04:42:38;99999.34;;;10.12;94.66
64362;BME280;50685;53.346;-6.296;2023-03-18T04:45:04;100002.06;;;10.09;95.34
64362;BME280;50685;53.346;-6.296;2023-03-18T04:47:30;100005.72;;;10.05;96.07
64362;BME280;50685;53.346;-6.296;2023-03-18T04:49:56;100005.78;;;10.02;96.31
64362;BME280;50685;53.346;-6.296;2023-03-18T04:52:22;100011.97;;;10.01;96.41
64362;BME280;50685;53.346;-6.296;2023-03-18T04:54:48;100017.31;;;10.00;95.78
64362;BME280;50685;53.346;-6.296;2023-03-18T04:57:14;100016.50;;;9.96;95.13
64362;BME280;50685;53.346;-6.296;2023-03-18T04:59:40;100022.75;;;9.93;94.28
64362;BME280;50685;53.346;-6.296;2023-03-18T05:02:06;100020.09;;;9.93;95.23
64362;BME280;50685;53.346;-6.296;2023-03-18T05:04:31;100018.41;;;9.91;96.13
64362;BME280;50685;53.346;-6.296;2023-03-18T05:06:57;100018.53;;;9.85;95.42
64362;BME280;50685;53.346;-6.296;2023-03-18T05:09:23;100021.28;;;9.80;94.71
64362;BME280;50685;53.346;-6.296;2023-03-18T05:11:49;100020.47;;;9.76;96.11
64362;BME280;50685;53.346;-6.296;2023-03-18T05:14:14;100025.88;;;9.72;96.42
64362;BME280;50685;53.346;-6.296;2023-03-18T05:16:40;100025.16;;;9.65;96.46
64362;BME280;50685;53.346;-6.296;2023-03-18T05:19:05;100035.81;;;9.60;97.10
64362;BME280;50685;53.346;-6.296;2023-03-18T05:21:32;100038.56;;;9.56;97.07
64362;BME280;50685;53.346;-6.296;2023-03-18T05:23:57;100039.59;;;9.50;97.01
64362;BME280;50685;53.346;-6.296;2023-03-18T05:26:23;100036.13;;;9.45;97.41
64362;BME280;50685;53.346;-6.296;2023-03-18T05:28:48;100038.91;;;9.40;97.22
64362;BME280;50685;53.346;-6.296;2023-03-18T05:31:14;100026.66;;;9.35;97.28
64362;BME280;50685;53.346;-6.296;2023-03-18T05:33:39;100039.16;;;9.28;97.48
64362;BME280;50685;53.346;-6.296;2023-03-18T05:36:06;100038.34;;;9.23;97.54
64362;BME280;50685;53.346;-6.296;2023-03-18T05:38:33;100034.91;;;9.18;97.82
64362;BME280;50685;53.346;-6.296;2023-03-18T05:40:58;100035.84;;;9.15;97.89
64362;BME280;50685;53.346;-6.296;2023-03-18T05:43:24;100042.97;;;9.11;98.33
64362;BME280;50685;53.346;-6.296;2023-03-18T05:45:50;100044.75;;;9.11;98.75
64362;BME280;50685;53.346;-6.296;2023-03-18T05:48:15;100047.41;;;9.11;98.69
64362;BME280;50685;53.346;-6.296;2023-03-18T05:50:41;100048.31;;;9.10;98.69
64362;BME280;50685;53.346;-6.296;2023-03-18T05:53:07;100050.06;;;9.09;98.92
64362;BME280;50685;53.346;-6.296;2023-03-18T05:55:34;100058.00;;;9.09;99.35
64362;BME280;50685;53.346;-6.296;2023-03-18T05:58:00;100058.00;;;9.11;99.02
64362;BME280;50685;53.346;-6.296;2023-03-18T06:00:26;100062.31;;;9.15;99.29
64362;BME280;50685;53.346;-6.296;2023-03-18T06:02:53;100056.97;;;9.18;99.16
64362;BME280;50685;53.346;-6.296;2023-03-18T06:05:18;100059.59;;;9.20;98.80
64362;BME280;50685;53.346;-6.296;2023-03-18T06:07:45;100059.53;;;9.21;99.01
64362;BME280;50685;53.346;-6.296;2023-03-18T06:10:11;100059.59;;;9.20;98.79
64362;BME280;50685;53.346;-6.296;2023-03-18T06:12:36;100063.13;;;9.19;98.63
64362;BME280;50685;53.346;-6.296;2023-03-18T06:15:02;100064.91;;;9.18;98.79
64362;BME280;50685;53.346;-6.296;2023-03-18T06:17:27;100069.34;;;9.16;99.00
64362;BME280;50685;53.346;-6.296;2023-03-18T06:19:53;100070.22;;;9.16;98.79
64362;BME280;50685;53.346;-6.296;2023-03-18T06:22:18;100081.69;;;9.15;98.90
64362;BME280;50685;53.346;-6.296;2023-03-18T06:24:44;100070.25;;;9.15;99.27
64362;BME280;50685;53.346;-6.296;2023-03-18T06:27:09;100074.69;;;9.14;99.17
64362;BME280;50685;53.346;-6.296;2023-03-18T06:29:35;100082.63;;;9.13;98.44
64362;BME280;50685;53.346;-6.296;2023-03-18T06:32:01;100080.00;;;9.11;99.00
64362;BME280;50685;53.346;-6.296;2023-03-18T06:34:26;100085.31;;;9.11;98.87
64362;BME280;50685;53.346;-6.296;2023-03-18T06:36:52;100088.84;;;9.12;98.58
64362;BME280;50685;53.346;-6.296;2023-03-18T06:39:17;100087.91;;;9.13;98.08
64362;BME280;50685;53.346;-6.296;2023-03-18T06:41:43;100092.38;;;9.11;98.25
64362;BME280;50685;53.346;-6.296;2023-03-18T06:44:09;100095.88;;;9.11;97.85
64362;BME280;50685;53.346;-6.296;2023-03-18T06:46:35;100099.47;;;9.09;97.86
64362;BME280;50685;53.346;-6.296;2023-03-18T06:49:01;100103.91;;;9.07;97.46
64362;BME280;50685;53.346;-6.296;2023-03-18T06:51:26;100108.34;;;9.05;97.01
64362;BME280;50685;53.346;-6.296;2023-03-18T06:53:51;100109.22;;;9.05;97.06
64362;BME280;50685;53.346;-6.296;2023-03-18T06:56:17;100118.91;;;9.06;97.08
64362;BME280;50685;53.346;-6.296;2023-03-18T06:58:42;100113.63;;;9.06;96.37
64362;BME280;50685;53.346;-6.296;2023-03-18T07:01:08;100125.06;;;9.07;96.76
64362;BME280;50685;53.346;-6.296;2023-03-18T07:03:36;100124.19;;;9.06;96.79
64362;BME280;50685;53.346;-6.296;2023-03-18T07:06:02;100123.34;;;9.04;96.03
64362;BME280;50685;53.346;-6.296;2023-03-18T07:08:28;100134.81;;;9.05;97.15
64362;BME280;50685;53.346;-6.296;2023-03-18T07:10:53;100135.72;;;9.04;96.65
64362;BME280;50685;53.346;-6.296;2023-03-18T07:13:19;100133.03;;;9.05;96.61
64362;BME280;50685;53.346;-6.296;2023-03-18T07:15:44;100140.06;;;9.06;96.51
64362;BME280;50685;53.346;-6.296;2023-03-18T07:18:10;100140.91;;;9.08;96.09
64362;BME280;50685;53.346;-6.296;2023-03-18T07:20:35;100141.75;;;9.12;96.57
64362;BME280;50685;53.346;-6.296;2023-03-18T07:23:01;100148.75;;;9.14;96.00
64362;BME280;50685;53.346;-6.296;2023-03-18T07:25:27;100158.38;;;9.19;97.12
64362;BME280;50685;53.346;-6.296;2023-03-18T07:27:53;100158.34;;;9.20;96.52
64362;BME280;50685;53.346;-6.296;2023-03-18T07:30:19;100166.19;;;9.25;95.85
64362;BME280;50685;53.346;-6.296;2023-03-18T07:32:45;100166.09;;;9.31;96.03
64362;BME280;50685;53.346;-6.296;2023-03-18T07:35:10;100166.91;;;9.35;95.67
64362;BME280;50685;53.346;-6.296;2023-03-18T07:37:38;100165.94;;;9.39;95.71
64362;BME280;50685;53.346;-6.296;2023-03-18T07:40:04;100171.13;;;9.45;96.07
64362;BME280;50685;53.346;-6.296;2023-03-18T07:42:30;100171.81;;;9.56;96.85
64362;BME280;50685;53.346;-6.296;2023-03-18T07:44:55;100172.41;;;9.71;97.20
64362;BME280;50685;53.346;-6.296;2023-03-18T07:47:20;100172.25;;;9.80;95.40
64362;BME280;50685;53.346;-6.296;2023-03-18T07:49:48;100182.63;;;9.91;96.27
64362;BME280;50685;53.346;-6.296;2023-03-18T07:52:13;100178.13;;;9.94;95.28
64362;BME280;50685;53.346;-6.296;2023-03-18T07:54:38;100181.56;;;10.00;94.37
64362;BME280;50685;53.346;-6.296;2023-03-18T07:57:04;100178.84;;;10.03;92.70
64362;BME280;50685;53.346;-6.296;2023-03-18T07:59:31;100177.81;;;10.10;93.92
64362;BME280;50685;53.346;-6.296;2023-03-18T08:01:56;100177.72;;;10.15;94.52
64362;BME280;50685;53.346;-6.296;2023-03-18T08:04:22;100187.41;;;10.16;92.70
64362;BME280;50685;53.346;-6.296;2023-03-18T08:06:47;100186.47;;;10.18;93.78
64362;BME280;50685;53.346;-6.296;2023-03-18T08:09:13;100189.09;;;10.20;92.76
64362;BME280;50685;53.346;-6.296;2023-03-18T08:11:38;100195.91;;;10.32;94.38
64362;BME280;50685;53.346;-6.296;2023-03-18T08:14:04;100199.19;;;10.46;93.97
64362;BME280;50685;53.346;-6.296;2023-03-18T08:16:30;100199.81;;;10.57;93.53
64362;BME280;50685;53.346;-6.296;2023-03-18T08:18:56;100201.28;;;10.71;93.88
64362;BME280;50685;53.346;-6.296;2023-03-18T08:21:21;100208.09;;;10.81;91.72
64362;BME280;50685;53.346;-6.296;2023-03-18T08:23:46;100218.41;;;10.93;91.28
64362;BME280;50685;53.346;-6.296;2023-03-18T08:26:12;100213.75;;;11.05;90.48
64362;BME280;50685;53.346;-6.296;2023-03-18T08:28:37;100210.00;;;11.14;90.49
64362;BME280;50685;53.346;-6.296;2023-03-18T08:31:03;100218.59;;;11.23;91.59
64362;BME280;50685;53.346;-6.296;2023-03-18T08:33:29;100211.22;;;11.35;89.16
64362;BME280;50685;53.346;-6.296;2023-03-18T08:35:55;100213.56;;;11.47;88.91
64362;BME280;50685;53.346;-6.296;2023-03-18T08:38:22;100218.38;;;11.66;88.52
64362;BME280;50685;53.346;-6.296;2023-03-18T08:40:48;100218.91;;;11.80;86.85
64362;BME280;50685;53.346;-6.296;2023-03-18T08:43:13;100215.78;;;11.96;84.27
64362;BME280;50685;53.346;-6.296;2023-03-18T08:45:39;100217.38;;;12.04;82.82
64362;BME280;50685;53.346;-6.296;2023-03-18T08:48:04;100224.28;;;12.10;82.75
64362;BME280;50685;53.346;-6.296;2023-03-18T08:50:30;100222.53;;;12.11;81.54
64362;BME280;50685;53.346;-6.296;2023-03-18T08:52:56;100228.69;;;12.11;82.55
64362;BME280;50685;53.346;-6.296;2023-03-18T08:55:29;100226.16;;;12.08;82.03
64362;BME280;50685;53.346;-6.296;2023-03-18T08:57:54;100231.59;;;12.02;80.51
64362;BME280;50685;53.346;-6.296;2023-03-18T09:00:20;100231.59;;;12.02;80.96
64362;BME280;50685;53.346;-6.296;2023-03-18T09:02:46;100232.50;;;12.02;81.43
64362;BME280;50685;53.346;-6.296;2023-03-18T09:05:12;100246.63;;;12.04;82.30
64362;BME280;50685;53.346;-6.296;2023-03-18T09:07:37;100238.78;;;12.00;80.97
64362;BME280;50685;53.346;-6.296;2023-03-18T09:10:04;100241.31;;;12.03;82.39
64362;BME280;50685;53.346;-6.296;2023-03-18T09:12:30;100241.44;;;12.00;80.79
64362;BME280;50685;53.346;-6.296;2023-03-18T09:14:55;100247.53;;;12.02;80.56
64362;BME280;50685;53.346;-6.296;2023-03-18T09:17:21;100245.72;;;12.04;80.67
64362;BME280;50685;53.346;-6.296;2023-03-18T09:19:47;100243.91;;;12.06;82.05
64362;BME280;50685;53.346;-6.296;2023-03-18T09:22:12;100246.44;;;12.11;81.33
64362;BME280;50685;53.346;-6.296;2023-03-18T09:24:37;100246.28;;;12.17;81.25
64362;BME280;50685;53.346;-6.296;2023-03-18T09:27:03;100240.84;;;12.20;81.79
64362;BME280;50685;53.346;-6.296;2023-03-18T09:29:29;100253.06;;;12.27;80.58
64362;BME280;50685;53.346;-6.296;2023-03-18T09:31:54;100244.00;;;12.34;80.56
64362;BME280;50685;53.346;-6.296;2023-03-18T09:34:20;100243.81;;;12.41;79.43
64362;BME280;50685;53.346;-6.296;2023-03-18T09:36:45;100247.16;;;12.47;78.90
64362;BME280;50685;53.346;-6.296;2023-03-18T09:39:15;100242.72;;;12.48;79.13
64362;BME280;50685;53.346;-6.296;2023-03-18T09:44:24;100253.59;;;12.40;78.71
64362;BME280;50685;53.346;-6.296;2023-03-18T09:47:05;100252.69;;;12.40;79.43
64362;BME280;50685;53.346;-6.296;2023-03-18T09:49:50;100260.78;;;12.36;78.81
64362;BME280;50685;53.346;-6.296;2023-03-18T09:55:04;100266.06;;;12.38;80.24
64362;BME280;50685;53.346;-6.296;2023-03-18T09:57:35;100265.22;;;12.36;80.10
64362;BME280;50685;53.346;-6.296;2023-03-18T10:00:05;100269.72;;;12.34;80.47
64362;BME280;50685;53.346;-6.296;2023-03-18T10:02:39;100284.00;;;12.30;78.80
64362;BME280;50685;53.346;-6.296;2023-03-18T10:05:11;100277.66;;;12.35;80.30
64362;BME280;50685;53.346;-6.296;2023-03-18T10:07:39;100282.00;;;12.38;80.25
64362;BME280;50685;53.346;-6.296;2023-03-18T10:10:11;100282.00;;;12.38;80.04
64362;BME280;50685;53.346;-6.296;2023-03-18T10:12:42;100291.69;;;12.41;80.15
64362;BME280;50685;53.346;-6.296;2023-03-18T10:15:16;100283.63;;;12.44;80.45
64362;BME280;50685;53.346;-6.296;2023-03-18T10:17:47;100290.78;;;12.42;79.88
64362;BME280;50685;53.346;-6.296;2023-03-18T10:20:17;100291.63;;;12.44;80.67
64362;BME280;50685;53.346;-6.296;2023-03-18T10:25:12;100293.25;;;12.48;80.84
64362;BME280;50685;53.346;-6.296;2023-03-18T10:30:18;100303.66;;;12.56;79.93
64362;BME280;50685;53.346;-6.296;2023-03-18T10:32:53;100301.00;;;12.56;80.64
64362;BME280;50685;53.346;-6.296;2023-03-18T10:35:28;100296.34;;;12.64;80.64
64362;BME280;50685;53.346;-6.296;2023-03-18T10:38:02;100300.63;;;12.69;80.71
64362;BME280;50685;53.346;-6.296;2023-03-18T10:40:35;100306.44;;;12.82;80.42
64362;BME280;50685;53.346;-6.296;2023-03-18T10:43:01;100307.94;;;12.91;80.90
64362;BME280;50685;53.346;-6.296;2023-03-18T10:45:28;100303.44;;;12.93;80.46
64362;BME280;50685;53.346;-6.296;2023-03-18T10:50:29;100315.09;;;12.89;81.34
64362;BME280;50685;53.346;-6.296;2023-03-18T10:55:28;100314.78;;;12.70;81.46
64362;BME280;50685;53.346;-6.296;2023-03-18T10:57:55;100322.06;;;12.63;82.62
64362;BME280;50685;53.346;-6.296;2023-03-18T11:00:28;100334.00;;;12.48;84.86
64362;BME280;50685;53.346;-6.296;2023-03-18T11:02:54;100328.91;;;12.41;86.47
64362;BME280;50685;53.346;-6.296;2023-03-18T11:05:25;100330.72;;;12.40;86.45
64362;BME280;50685;53.346;-6.296;2023-03-18T11:08:26;100328.00;;;12.42;85.84
64362;BME280;50685;53.346;-6.296;2023-03-18T11:10:48;100337.97;;;12.33;85.08
64362;BME280;50685;53.346;-6.296;2023-03-18T11:13:15;100346.78;;;12.35;85.72
64362;BME280;50685;53.346;-6.296;2023-03-18T11:15:43;100332.59;;;12.35;85.07
64362;BME280;50685;53.346;-6.296;2023-03-18T11:18:16;100336.94;;;12.39;84.84
64362;BME280;50685;53.346;-6.296;2023-03-18T11:20:42;100340.50;;;12.38;84.69
64362;BME280;50685;53.346;-6.296;2023-03-18T11:23:14;100339.56;;;12.41;84.94
64362;BME280;50685;53.346;-6.296;2023-03-18T11:25:44;100341.19;;;12.46;85.10
64362;BME280;50685;53.346;-6.296;2023-03-18T11:28:21;100347.31;;;12.48;84.74
64362;BME280;50685;53.346;-6.296;2023-03-18T11:30:48;100347.31;;;12.48;84.23
64362;BME280;50685;53.346;-6.296;2023-03-18T11:33:15;100345.50;;;12.50;84.20
64362;BME280;50685;53.346;-6.296;2023-03-18T11:35:51;100348.38;;;12.43;84.20
64362;BME280;50685;53.346;-6.296;2023-03-18T11:38:24;100359.19;;;12.35;84.07
64362;BME280;50685;53.346;-6.296;2023-03-18T11:40:52;100361.91;;;12.33;84.98
64362;BME280;50685;53.346;-6.296;2023-03-18T11:43:19;100363.72;;;12.33;85.88
64362;BME280;50685;53.346;-6.296;2023-03-18T11:45:49;100373.50;;;12.31;87.69
64362;BME280;50685;53.346;-6.296;2023-03-18T11:48:39;100377.28;;;12.22;89.23
64362;BME280;50685;53.346;-6.296;2023-03-18T11:59:09;100377.75;;;11.66;95.92
64362;BME280;50685;53.346;-6.296;2023-03-18T12:01:47;100381.47;;;11.58;96.38
64362;BME280;50685;53.346;-6.296;2023-03-18T12:09:30;100409.69;;;11.25;94.45
64362;BME280;50685;53.346;-6.296;2023-03-18T12:14:45;100414.75;;;10.93;92.21
64362;BME280;50685;53.346;-6.296;2023-03-18T12:25:22;100446.84;;;10.81;91.55
64362;BME280;50685;53.346;-6.296;2023-03-18T12:31:26;100448.00;;;10.66;90.55
64362;BME280;50685;53.346;-6.296;2023-03-18T12:46:57;100493.59;;;10.35;87.84
64362;BME280;50685;53.346;-6.296;2023-03-18T12:49:31;100501.53;;;10.38;87.80
64362;BME280;50685;53.346;-6.296;2023-03-18T12:52:08;100501.53;;;10.40;87.85
64362;BME280;50685;53.346;-6.296;2023-03-18T12:54:36;100507.72;;;10.39;88.07
64362;BME280;50685;53.346;-6.296;2023-03-18T12:57:09;100512.94;;;10.43;nan
64362;BME280;50685;53.346;-6.296;2023-03-18T12:59:44;100504.94;;;10.47;88.10
64362;BME280;50685;53.346;-6.296;2023-03-18T13:02:19;100519.78;;;10.57;88.35
64362;BME280;50685;53.346;-6.296;2023-03-18T13:04:52;100515.91;;;10.75;87.36
64362;BME280;50685;53.346;-6.296;2023-03-18T13:10:21;100527.09;;;10.92;86.60
64362;BME280;50685;53.346;-6.296;2023-03-18T13:12:50;100535.75;;;11.04;86.60
64362;BME280;50685;53.346;-6.296;2023-03-18T13:15:37;100524.13;;;11.09;85.67
64362;BME280;50685;53.346;-6.296;2023-03-18T13:20:48;100547.16;;;11.09;85.72
64362;BME280;50685;53.346;-6.296;2023-03-18T13:23:20;100545.19;;;11.19;84.83
64362;BME280;50685;53.346;-6.296;2023-03-18T13:26:33;100545.13;;;11.22;83.70
64362;BME280;50685;53.346;-6.296;2023-03-18T13:28:40;100545.16;;;11.20;83.52
64362;BME280;50685;53.346;-6.296;2023-03-18T13:31:18;100547.97;;;11.13;83.83
64362;BME280;50685;53.346;-6.296;2023-03-18T13:34:06;100551.59;;;11.07;84.13
64362;BME280;50685;53.346;-6.296;2023-03-18T13:44:38;100547.31;;;11.47;79.83
64362;BME280;50685;53.346;-6.296;2023-03-18T13:47:06;100539.34;;;11.45;78.60
64362;BME280;50685;53.346;-6.296;2023-03-18T13:49:33;100551.00;;;11.38;77.86
64362;BME280;50685;53.346;-6.296;2023-03-18T13:52:01;100553.72;;;11.35;78.32
64362;BME280;50685;53.346;-6.296;2023-03-18T13:54:35;100554.06;;;11.18;77.98
64362;BME280;50685;53.346;-6.296;2023-03-18T14:02:44;100574.34;;;10.70;78.85
64362;BME280;50685;53.346;-6.296;2023-03-18T14:07:55;100570.38;;;10.96;77.10
64362;BME280;50685;53.346;-6.296;2023-03-18T14:10:20;100577.06;;;11.63;76.75